sensor_id;sensor_type;location;lat;lon;timestamp;temperature;humidity
15922;DHT22;8060;50.948;3.146;2024-02-21T00:00:17;10.30;99.90
15922;DHT22;8060;50.948;3.146;2024-02-21T00:02:46;10.30;99.90
15922;DHT22;8060;50.948;3.146;2024-02-21T00:05:14;10.20;99.90
15922;DHT22;8060;50.948;3.146;2024-02-21T00:07:42;10.20;99.90
15922;DHT22;8060;50.948;3.146;2024-02-21T00:10:10;10.10;99.90
15922;DHT22;8060;50.948;3.146;2024-02-21T00:12:39;10.20;99.90
15922;DHT22;8060;50.948;3.146;2024-02-21T00:15:07;10.20;99.90
15922;DHT22;8060;50.948;3.146;2024-02-21T00:17:37;10.10;99.90
15922;DHT22;8060;50.948;3.146;2024-02-21T00:20:06;10.10;99.90
15922;DHT22;8060;50.948;3.146;2024-02-21T00:22:35;10.10;99.90
15922;DHT22;8060;50.948;3.146;2024-02-21T00:25:04;10.10;99.90
15922;DHT22;8060;50.948;3.146;2024-02-21T00:27:32;10.10;99.90
15922;DHT22;8060;50.948;3.146;2024-02-21T00:30:00;10.10;99.90
15922;DHT22;8060;50.948;3.146;2024-02-21T00:32:28;10.10;99.90
15922;DHT22;8060;50.948;3.146;2024-02-21T00:34:57;10.10;99.90
15922;DHT22;8060;50.948;3.146;2024-02-21T00:37:26;10.10;99.90
15922;DHT22;8060;50.948;3.146;2024-02-21T00:39:54;10.00;99.90
15922;DHT22;8060;50.948;3.146;2024-02-21T00:42:22;10.00;99.90
15922;DHT22;8060;50.948;3.146;2024-02-21T00:44:50;10.00;99.90
15922;DHT22;8060;50.948;3.146;2024-02-21T00:47:18;9.90;99.90
15922;DHT22;8060;50.948;3.146;2024-02-21T00:49:46;10.00;99.90
15922;DHT22;8060;50.948;3.146;2024-02-21T00:52:16;9.90;99.90
15922;DHT22;8060;50.948;3.146;2024-02-21T00:54:44;9.90;99.90
15922;DHT22;8060;50.948;3.146;2024-02-21T00:57:20;9.90;99.90
15922;DHT22;8060;50.948;3.146;2024-02-21T00:59:48;9.90;99.90
15922;DHT22;8060;50.948;3.146;2024-02-21T01:02:16;9.90;99.90
15922;DHT22;8060;50.948;3.146;2024-02-21T01:04:44;9.90;99.90
15922;DHT22;8060;50.948;3.146;2024-02-21T01:07:12;9.90;99.90
15922;DHT22;8060;50.948;3.146;2024-02-21T01:09:42;9.90;99.90
15922;DHT22;8060;50.948;3.146;2024-02-21T01:12:10;9.90;99.90
15922;DHT22;8060;50.948;3.146;2024-02-21T01:14:38;9.80;99.90
15922;DHT22;8060;50.948;3.146;2024-02-21T01:17:06;9.80;99.90
15922;DHT22;8060;50.948;3.146;2024-02-21T01:19:34;9.80;99.90
15922;DHT22;8060;50.948;3.146;2024-02-21T01:22:02;9.80;99.90
15922;DHT22;8060;50.948;3.146;2024-02-21T01:24:30;9.70;99.90
15922;DHT22;8060;50.948;3.146;2024-02-21T01:27:00;9.70;99.90
15922;DHT22;8060;50.948;3.146;2024-02-21T01:29:28;9.70;99.90
15922;DHT22;8060;50.948;3.146;2024-02-21T01:31:56;9.70;99.90
15922;DHT22;8060;50.948;3.146;2024-02-21T01:34:24;9.70;99.90
15922;DHT22;8060;50.948;3.146;2024-02-21T01:36:58;9.70;99.90
15922;DHT22;8060;50.948;3.146;2024-02-21T01:39:26;9.70;99.90
15922;DHT22;8060;50.948;3.146;2024-02-21T01:41:54;9.70;99.90
15922;DHT22;8060;50.948;3.146;2024-02-21T01:44:24;9.70;99.90
15922;DHT22;8060;50.948;3.146;2024-02-21T01:46:52;9.70;99.90
15922;DHT22;8060;50.948;3.146;2024-02-21T01:49:21;9.60;99.90
15922;DHT22;8060;50.948;3.146;2024-02-21T01:51:49;9.70;99.90
15922;DHT22;8060;50.948;3.146;2024-02-21T01:54:19;9.60;99.90
15922;DHT22;8060;50.948;3.146;2024-02-21T01:56:47;9.60;99.90
15922;DHT22;8060;50.948;3.146;2024-02-21T01:59:18;9.60;99.90
15922;DHT22;8060;50.948;3.146;2024-02-21T02:01:48;9.50;99.90
15922;DHT22;8060;50.948;3.146;2024-02-21T02:04:16;9.60;99.90
15922;DHT22;8060;50.948;3.146;2024-02-21T02:06:44;9.50;99.90
15922;DHT22;8060;50.948;3.146;2024-02-21T02:09:12;9.60;99.90
15922;DHT22;8060;50.948;3.146;2024-02-21T02:11:40;9.60;99.90
15922;DHT22;8060;50.948;3.146;2024-02-21T02:14:10;9.60;99.90
15922;DHT22;8060;50.948;3.146;2024-02-21T02:16:38;9.60;99.90
15922;DHT22;8060;50.948;3.146;2024-02-21T02:19:07;9.60;99.90
15922;DHT22;8060;50.948;3.146;2024-02-21T02:21:41;9.60;99.90
15922;DHT22;8060;50.948;3.146;2024-02-21T02:24:12;9.60;99.90
15922;DHT22;8060;50.948;3.146;2024-02-21T02:26:41;9.60;99.90
15922;DHT22;8060;50.948;3.146;2024-02-21T02:29:09;9.70;99.90
15922;DHT22;8060;50.948;3.146;2024-02-21T02:31:37;9.70;99.90
15922;DHT22;8060;50.948;3.146;2024-02-21T02:34:06;9.70;99.90
15922;DHT22;8060;50.948;3.146;2024-02-21T02:36:35;9.70;99.90
15922;DHT22;8060;50.948;3.146;2024-02-21T02:39:03;9.70;99.90
15922;DHT22;8060;50.948;3.146;2024-02-21T02:41:36;9.70;99.90
15922;DHT22;8060;50.948;3.146;2024-02-21T02:44:04;9.70;99.90
15922;DHT22;8060;50.948;3.146;2024-02-21T02:46:32;9.80;99.90
15922;DHT22;8060;50.948;3.146;2024-02-21T02:49:01;9.80;99.90
15922;DHT22;8060;50.948;3.146;2024-02-21T02:51:29;9.80;99.90
15922;DHT22;8060;50.948;3.146;2024-02-21T02:53:57;9.80;99.90
15922;DHT22;8060;50.948;3.146;2024-02-21T02:56:25;9.90;99.90
15922;DHT22;8060;50.948;3.146;2024-02-21T02:58:54;9.80;99.90
15922;DHT22;8060;50.948;3.146;2024-02-21T03:01:23;9.80;99.90
15922;DHT22;8060;50.948;3.146;2024-02-21T03:03:51;9.80;99.90
15922;DHT22;8060;50.948;3.146;2024-02-21T03:06:19;9.80;99.90
15922;DHT22;8060;50.948;3.146;2024-02-21T03:08:47;9.80;99.90
15922;DHT22;8060;50.948;3.146;2024-02-21T03:11:15;9.80;99.90
15922;DHT22;8060;50.948;3.146;2024-02-21T03:13:43;9.90;99.90
15922;DHT22;8060;50.948;3.146;2024-02-21T03:16:13;9.90;99.90
15922;DHT22;8060;50.948;3.146;2024-02-21T03:18:44;9.80;99.90
15922;DHT22;8060;50.948;3.146;2024-02-21T03:21:13;9.90;99.90
15922;DHT22;8060;50.948;3.146;2024-02-21T03:23:41;9.90;99.90
15922;DHT22;8060;50.948;3.146;2024-02-21T03:26:09;9.90;99.90
15922;DHT22;8060;50.948;3.146;2024-02-21T03:28:37;9.80;99.90
15922;DHT22;8060;50.948;3.146;2024-02-21T03:31:06;9.80;99.90
15922;DHT22;8060;50.948;3.146;2024-02-21T03:33:36;9.80;99.90
15922;DHT22;8060;50.948;3.146;2024-02-21T03:36:04;9.80;99.90
15922;DHT22;8060;50.948;3.146;2024-02-21T03:38:33;9.80;99.90
15922;DHT22;8060;50.948;3.146;2024-02-21T03:41:01;9.80;99.90
15922;DHT22;8060;50.948;3.146;2024-02-21T03:43:29;9.90;99.90
15922;DHT22;8060;50.948;3.146;2024-02-21T03:45:57;10.00;99.90
15922;DHT22;8060;50.948;3.146;2024-02-21T03:48:25;9.90;99.90
15922;DHT22;8060;50.948;3.146;2024-02-21T03:50:54;9.90;99.90
15922;DHT22;8060;50.948;3.146;2024-02-21T03:53:22;9.80;99.90
15922;DHT22;8060;50.948;3.146;2024-02-21T03:55:51;9.80;99.90
15922;DHT22;8060;50.948;3.146;2024-02-21T03:58:19;9.80;99.90
15922;DHT22;8060;50.948;3.146;2024-02-21T04:00:47;9.80;99.90
15922;DHT22;8060;50.948;3.146;2024-02-21T04:03:15;9.90;99.90
15922;DHT22;8060;50.948;3.146;2024-02-21T04:05:44;9.90;99.90
15922;DHT22;8060;50.948;3.146;2024-02-21T04:08:14;9.90;99.90
15922;DHT22;8060;50.948;3.146;2024-02-21T04:10:42;9.90;99.90
15922;DHT22;8060;50.948;3.146;2024-02-21T04:13:10;9.90;99.90
15922;DHT22;8060;50.948;3.146;2024-02-21T04:15:38;9.90;99.90
15922;DHT22;8060;50.948;3.146;2024-02-21T04:18:06;9.80;99.90
15922;DHT22;8060;50.948;3.146;2024-02-21T04:20:35;9.90;99.90
15922;DHT22;8060;50.948;3.146;2024-02-21T04:23:03;9.80;99.90
15922;DHT22;8060;50.948;3.146;2024-02-21T04:25:33;9.80;99.90
15922;DHT22;8060;50.948;3.146;2024-02-21T04:28:01;9.80;99.90
15922;DHT22;8060;50.948;3.146;2024-02-21T04:30:29;9.90;99.90
15922;DHT22;8060;50.948;3.146;2024-02-21T04:32:57;9.80;99.90
15922;DHT22;8060;50.948;3.146;2024-02-21T04:35:25;9.80;99.90
15922;DHT22;8060;50.948;3.146;2024-02-21T04:37:54;9.80;99.90
15922;DHT22;8060;50.948;3.146;2024-02-21T04:40:22;9.80;99.90
15922;DHT22;8060;50.948;3.146;2024-02-21T04:42:52;9.90;99.90
15922;DHT22;8060;50.948;3.146;2024-02-21T04:45:20;9.80;99.90
15922;DHT22;8060;50.948;3.146;2024-02-21T04:47:48;9.80;99.90
15922;DHT22;8060;50.948;3.146;2024-02-21T04:50:16;9.80;99.90
15922;DHT22;8060;50.948;3.146;2024-02-21T04:52:45;9.80;99.90
15922;DHT22;8060;50.948;3.146;2024-02-21T04:55:13;9.80;99.90
15922;DHT22;8060;50.948;3.146;2024-02-21T04:57:41;9.80;99.90
15922;DHT22;8060;50.948;3.146;2024-02-21T05:00:11;9.80;99.90
15922;DHT22;8060;50.948;3.146;2024-02-21T05:02:40;9.80;99.90
15922;DHT22;8060;50.948;3.146;2024-02-21T05:05:08;9.80;99.90
15922;DHT22;8060;50.948;3.146;2024-02-21T05:07:36;9.80;99.90
15922;DHT22;8060;50.948;3.146;2024-02-21T05:10:06;9.80;99.90
15922;DHT22;8060;50.948;3.146;2024-02-21T05:12:35;9.80;99.90
15922;DHT22;8060;50.948;3.146;2024-02-21T05:15:04;9.90;99.90
15922;DHT22;8060;50.948;3.146;2024-02-21T05:17:35;9.80;99.90
15922;DHT22;8060;50.948;3.146;2024-02-21T05:20:03;9.80;99.90
15922;DHT22;8060;50.948;3.146;2024-02-21T05:22:32;9.90;99.90
15922;DHT22;8060;50.948;3.146;2024-02-21T05:25:00;9.80;99.90
15922;DHT22;8060;50.948;3.146;2024-02-21T05:27:29;9.80;99.90
15922;DHT22;8060;50.948;3.146;2024-02-21T05:29:57;9.90;99.90
15922;DHT22;8060;50.948;3.146;2024-02-21T05:32:25;9.90;99.90
15922;DHT22;8060;50.948;3.146;2024-02-21T05:34:55;9.90;99.90
15922;DHT22;8060;50.948;3.146;2024-02-21T05:37:25;9.90;99.90
15922;DHT22;8060;50.948;3.146;2024-02-21T05:39:53;9.90;99.90
15922;DHT22;8060;50.948;3.146;2024-02-21T05:42:21;9.90;99.90
15922;DHT22;8060;50.948;3.146;2024-02-21T05:44:49;9.90;99.90
15922;DHT22;8060;50.948;3.146;2024-02-21T05:47:17;9.80;99.90
15922;DHT22;8060;50.948;3.146;2024-02-21T05:49:47;9.80;99.90
15922;DHT22;8060;50.948;3.146;2024-02-21T05:52:17;9.90;99.90
15922;DHT22;8060;50.948;3.146;2024-02-21T05:54:45;9.90;99.90
15922;DHT22;8060;50.948;3.146;2024-02-21T05:57:17;9.90;99.90
15922;DHT22;8060;50.948;3.146;2024-02-21T05:59:45;9.90;99.90
15922;DHT22;8060;50.948;3.146;2024-02-21T06:02:13;9.80;99.90
15922;DHT22;8060;50.948;3.146;2024-02-21T06:04:41;9.80;99.90
15922;DHT22;8060;50.948;3.146;2024-02-21T06:07:11;9.80;99.90
15922;DHT22;8060;50.948;3.146;2024-02-21T06:09:41;9.80;99.90
15922;DHT22;8060;50.948;3.146;2024-02-21T06:12:09;9.90;99.90
15922;DHT22;8060;50.948;3.146;2024-02-21T06:14:37;9.90;99.90
15922;DHT22;8060;50.948;3.146;2024-02-21T06:17:05;9.80;99.90
15922;DHT22;8060;50.948;3.146;2024-02-21T06:19:34;9.80;99.90
15922;DHT22;8060;50.948;3.146;2024-02-21T06:22:02;9.90;99.90
15922;DHT22;8060;50.948;3.146;2024-02-21T06:24:35;9.80;99.90
15922;DHT22;8060;50.948;3.146;2024-02-21T06:27:05;9.80;99.90
15922;DHT22;8060;50.948;3.146;2024-02-21T06:29:37;9.80;99.90
15922;DHT22;8060;50.948;3.146;2024-02-21T06:32:05;9.80;99.90
15922;DHT22;8060;50.948;3.146;2024-02-21T06:34:34;9.70;99.90
15922;DHT22;8060;50.948;3.146;2024-02-21T06:37:02;9.80;99.90
15922;DHT22;8060;50.948;3.146;2024-02-21T06:39:31;9.80;99.90
15922;DHT22;8060;50.948;3.146;2024-02-21T06:41:59;9.80;99.90
15922;DHT22;8060;50.948;3.146;2024-02-21T06:44:31;9.80;99.90
15922;DHT22;8060;50.948;3.146;2024-02-21T06:47:03;9.80;99.90
15922;DHT22;8060;50.948;3.146;2024-02-21T06:49:34;9.90;99.90
15922;DHT22;8060;50.948;3.146;2024-02-21T06:52:10;9.80;99.90
15922;DHT22;8060;50.948;3.146;2024-02-21T06:54:43;9.90;99.90
15922;DHT22;8060;50.948;3.146;2024-02-21T06:57:11;9.90;99.90
15922;DHT22;8060;50.948;3.146;2024-02-21T06:59:41;9.80;99.90
15922;DHT22;8060;50.948;3.146;2024-02-21T07:02:09;9.80;99.90
15922;DHT22;8060;50.948;3.146;2024-02-21T07:04:37;9.80;99.90
15922;DHT22;8060;50.948;3.146;2024-02-21T07:07:06;9.80;99.90
15922;DHT22;8060;50.948;3.146;2024-02-21T07:09:34;9.80;99.90
15922;DHT22;8060;50.948;3.146;2024-02-21T07:12:03;9.80;99.90
15922;DHT22;8060;50.948;3.146;2024-02-21T07:14:32;9.80;99.90
15922;DHT22;8060;50.948;3.146;2024-02-21T07:17:02;9.80;99.90
15922;DHT22;8060;50.948;3.146;2024-02-21T07:19:30;9.80;99.90
15922;DHT22;8060;50.948;3.146;2024-02-21T07:21:58;9.80;99.90
15922;DHT22;8060;50.948;3.146;2024-02-21T07:24:27;9.70;99.90
15922;DHT22;8060;50.948;3.146;2024-02-21T07:26:55;9.80;99.90
15922;DHT22;8060;50.948;3.146;2024-02-21T07:29:23;9.80;99.90
15922;DHT22;8060;50.948;3.146;2024-02-21T07:31:52;9.80;99.90
15922;DHT22;8060;50.948;3.146;2024-02-21T07:34:22;9.80;99.90
15922;DHT22;8060;50.948;3.146;2024-02-21T07:36:50;9.80;99.90
15922;DHT22;8060;50.948;3.146;2024-02-21T07:39:18;9.80;99.90
15922;DHT22;8060;50.948;3.146;2024-02-21T07:41:46;9.90;99.90
15922;DHT22;8060;50.948;3.146;2024-02-21T07:44:16;9.80;99.90
15922;DHT22;8060;50.948;3.146;2024-02-21T07:46:44;9.80;99.90
15922;DHT22;8060;50.948;3.146;2024-02-21T07:49:12;9.80;99.90
15922;DHT22;8060;50.948;3.146;2024-02-21T07:51:41;9.80;99.90
15922;DHT22;8060;50.948;3.146;2024-02-21T07:54:10;9.80;99.90
15922;DHT22;8060;50.948;3.146;2024-02-21T07:56:43;9.80;99.90
15922;DHT22;8060;50.948;3.146;2024-02-21T07:59:11;9.80;99.90
15922;DHT22;8060;50.948;3.146;2024-02-21T08:01:40;9.80;99.90
15922;DHT22;8060;50.948;3.146;2024-02-21T08:04:08;9.80;99.90
15922;DHT22;8060;50.948;3.146;2024-02-21T08:06:36;9.90;99.90
15922;DHT22;8060;50.948;3.146;2024-02-21T08:09:06;9.90;99.90
15922;DHT22;8060;50.948;3.146;2024-02-21T08:11:34;9.90;99.90
15922;DHT22;8060;50.948;3.146;2024-02-21T08:14:02;9.80;99.90
15922;DHT22;8060;50.948;3.146;2024-02-21T08:16:31;9.80;99.90
15922;DHT22;8060;50.948;3.146;2024-02-21T08:18:59;9.80;99.90
15922;DHT22;8060;50.948;3.146;2024-02-21T08:21:29;9.90;99.90
15922;DHT22;8060;50.948;3.146;2024-02-21T08:23:57;9.90;99.90
15922;DHT22;8060;50.948;3.146;2024-02-21T08:26:26;9.80;99.90
15922;DHT22;8060;50.948;3.146;2024-02-21T08:28:57;9.80;99.90
15922;DHT22;8060;50.948;3.146;2024-02-21T08:31:26;9.80;99.90
15922;DHT22;8060;50.948;3.146;2024-02-21T08:33:58;9.90;99.90
15922;DHT22;8060;50.948;3.146;2024-02-21T08:36:29;9.90;99.90
15922;DHT22;8060;50.948;3.146;2024-02-21T08:38:57;9.90;99.90
15922;DHT22;8060;50.948;3.146;2024-02-21T08:41:27;9.90;99.90
15922;DHT22;8060;50.948;3.146;2024-02-21T08:44:15;9.90;99.90
15922;DHT22;8060;50.948;3.146;2024-02-21T08:46:43;9.80;99.90
15922;DHT22;8060;50.948;3.146;2024-02-21T08:49:11;9.80;99.90
15922;DHT22;8060;50.948;3.146;2024-02-21T08:51:40;9.90;99.90
15922;DHT22;8060;50.948;3.146;2024-02-21T08:54:10;9.90;99.90
15922;DHT22;8060;50.948;3.146;2024-02-21T08:56:39;9.90;99.90
15922;DHT22;8060;50.948;3.146;2024-02-21T08:59:07;9.90;99.90
15922;DHT22;8060;50.948;3.146;2024-02-21T09:01:35;9.90;99.90
15922;DHT22;8060;50.948;3.146;2024-02-21T09:04:05;9.90;99.90
15922;DHT22;8060;50.948;3.146;2024-02-21T09:06:34;9.90;99.90
15922;DHT22;8060;50.948;3.146;2024-02-21T09:09:06;10.00;99.90
15922;DHT22;8060;50.948;3.146;2024-02-21T09:11:35;10.00;99.90
15922;DHT22;8060;50.948;3.146;2024-02-21T09:14:04;10.00;99.90
15922;DHT22;8060;50.948;3.146;2024-02-21T09:16:32;10.00;99.90
15922;DHT22;8060;50.948;3.146;2024-02-21T09:19:16;10.00;99.90
15922;DHT22;8060;50.948;3.146;2024-02-21T09:21:45;10.00;99.90
15922;DHT22;8060;50.948;3.146;2024-02-21T09:24:13;10.10;99.90
15922;DHT22;8060;50.948;3.146;2024-02-21T09:26:41;10.00;99.90
15922;DHT22;8060;50.948;3.146;2024-02-21T09:29:09;10.00;99.90
15922;DHT22;8060;50.948;3.146;2024-02-21T09:31:37;10.00;99.90
15922;DHT22;8060;50.948;3.146;2024-02-21T09:34:06;10.00;99.90
15922;DHT22;8060;50.948;3.146;2024-02-21T09:36:36;10.10;99.90
15922;DHT22;8060;50.948;3.146;2024-02-21T09:39:05;10.10;99.90
15922;DHT22;8060;50.948;3.146;2024-02-21T09:41:36;10.10;99.90
15922;DHT22;8060;50.948;3.146;2024-02-21T09:44:06;10.10;99.90
15922;DHT22;8060;50.948;3.146;2024-02-21T09:46:42;10.20;99.90
15922;DHT22;8060;50.948;3.146;2024-02-21T09:49:20;10.20;99.90
15922;DHT22;8060;50.948;3.146;2024-02-21T09:51:52;10.20;99.90
15922;DHT22;8060;50.948;3.146;2024-02-21T09:54:22;10.20;99.90
15922;DHT22;8060;50.948;3.146;2024-02-21T09:56:50;10.30;99.90
15922;DHT22;8060;50.948;3.146;2024-02-21T09:59:19;10.20;99.90
15922;DHT22;8060;50.948;3.146;2024-02-21T10:01:47;10.20;99.90
15922;DHT22;8060;50.948;3.146;2024-02-21T10:04:17;10.30;99.90
15922;DHT22;8060;50.948;3.146;2024-02-21T10:06:46;10.20;99.90
15922;DHT22;8060;50.948;3.146;2024-02-21T10:09:22;10.20;99.90
15922;DHT22;8060;50.948;3.146;2024-02-21T10:11:51;10.20;99.90
15922;DHT22;8060;50.948;3.146;2024-02-21T10:14:19;10.20;99.90
15922;DHT22;8060;50.948;3.146;2024-02-21T10:16:48;10.20;99.90
15922;DHT22;8060;50.948;3.146;2024-02-21T10:19:17;10.20;99.90
15922;DHT22;8060;50.948;3.146;2024-02-21T10:22:00;10.30;99.90
15922;DHT22;8060;50.948;3.146;2024-02-21T10:24:32;10.30;99.90
15922;DHT22;8060;50.948;3.146;2024-02-21T10:27:02;10.20;99.90
15922;DHT22;8060;50.948;3.146;2024-02-21T10:29:30;10.30;99.90
15922;DHT22;8060;50.948;3.146;2024-02-21T10:32:09;10.30;99.90
15922;DHT22;8060;50.948;3.146;2024-02-21T10:34:39;10.30;99.90
15922;DHT22;8060;50.948;3.146;2024-02-21T10:37:08;10.30;99.90
15922;DHT22;8060;50.948;3.146;2024-02-21T10:39:40;10.30;99.90
15922;DHT22;8060;50.948;3.146;2024-02-21T10:42:11;10.30;99.90
15922;DHT22;8060;50.948;3.146;2024-02-21T10:44:40;10.30;99.90
15922;DHT22;8060;50.948;3.146;2024-02-21T10:47:10;10.30;99.90
15922;DHT22;8060;50.948;3.146;2024-02-21T10:49:41;10.40;99.90
15922;DHT22;8060;50.948;3.146;2024-02-21T10:52:14;10.30;99.90
15922;DHT22;8060;50.948;3.146;2024-02-21T10:54:50;10.30;99.90
15922;DHT22;8060;50.948;3.146;2024-02-21T10:57:21;10.30;99.90
15922;DHT22;8060;50.948;3.146;2024-02-21T10:59:55;10.30;99.90
15922;DHT22;8060;50.948;3.146;2024-02-21T11:02:23;10.30;99.90
15922;DHT22;8060;50.948;3.146;2024-02-21T11:04:53;10.30;99.90
15922;DHT22;8060;50.948;3.146;2024-02-21T11:07:23;10.40;99.90
15922;DHT22;8060;50.948;3.146;2024-02-21T11:09:53;10.40;99.90
15922;DHT22;8060;50.948;3.146;2024-02-21T11:12:23;10.40;99.90
15922;DHT22;8060;50.948;3.146;2024-02-21T11:14:52;10.40;99.90
15922;DHT22;8060;50.948;3.146;2024-02-21T11:17:21;10.40;99.90
15922;DHT22;8060;50.948;3.146;2024-02-21T11:19:53;10.30;99.90
15922;DHT22;8060;50.948;3.146;2024-02-21T11:22:21;10.40;99.90
15922;DHT22;8060;50.948;3.146;2024-02-21T11:24:53;10.30;99.90
15922;DHT22;8060;50.948;3.146;2024-02-21T11:27:23;10.30;99.90
15922;DHT22;8060;50.948;3.146;2024-02-21T11:29:56;10.30;99.90
15922;DHT22;8060;50.948;3.146;2024-02-21T11:32:26;10.40;99.90
15922;DHT22;8060;50.948;3.146;2024-02-21T11:34:55;10.30;99.90
15922;DHT22;8060;50.948;3.146;2024-02-21T11:37:25;10.40;99.90
15922;DHT22;8060;50.948;3.146;2024-02-21T11:39:57;10.40;99.90
15922;DHT22;8060;50.948;3.146;2024-02-21T11:42:26;10.40;99.90
15922;DHT22;8060;50.948;3.146;2024-02-21T11:44:55;10.40;99.90
15922;DHT22;8060;50.948;3.146;2024-02-21T11:47:24;10.40;99.90
15922;DHT22;8060;50.948;3.146;2024-02-21T11:49:53;10.40;99.90
15922;DHT22;8060;50.948;3.146;2024-02-21T11:52:22;10.40;99.90
15922;DHT22;8060;50.948;3.146;2024-02-21T11:54:54;10.50;99.90
15922;DHT22;8060;50.948;3.146;2024-02-21T11:57:26;10.50;99.90
15922;DHT22;8060;50.948;3.146;2024-02-21T11:59:54;10.50;99.90
15922;DHT22;8060;50.948;3.146;2024-02-21T12:02:26;10.50;99.90
15922;DHT22;8060;50.948;3.146;2024-02-21T12:04:55;10.50;99.90
15922;DHT22;8060;50.948;3.146;2024-02-21T12:07:24;10.50;99.90
15922;DHT22;8060;50.948;3.146;2024-02-21T12:09:52;10.60;99.90
15922;DHT22;8060;50.948;3.146;2024-02-21T12:12:20;10.60;99.90
15922;DHT22;8060;50.948;3.146;2024-02-21T12:14:55;10.60;99.90
15922;DHT22;8060;50.948;3.146;2024-02-21T12:17:25;10.70;99.90
15922;DHT22;8060;50.948;3.146;2024-02-21T12:19:53;10.70;99.90
15922;DHT22;8060;50.948;3.146;2024-02-21T12:22:21;10.80;99.90
15922;DHT22;8060;50.948;3.146;2024-02-21T12:24:49;10.70;99.90
15922;DHT22;8060;50.948;3.146;2024-02-21T12:27:17;10.70;99.90
15922;DHT22;8060;50.948;3.146;2024-02-21T12:29:46;10.70;99.90
15922;DHT22;8060;50.948;3.146;2024-02-21T12:32:15;10.70;99.90
15922;DHT22;8060;50.948;3.146;2024-02-21T12:34:43;10.70;99.90
15922;DHT22;8060;50.948;3.146;2024-02-21T12:37:23;10.70;99.90
15922;DHT22;8060;50.948;3.146;2024-02-21T12:39:51;10.70;99.90
15922;DHT22;8060;50.948;3.146;2024-02-21T12:42:20;10.70;99.90
15922;DHT22;8060;50.948;3.146;2024-02-21T12:44:50;10.70;99.90
15922;DHT22;8060;50.948;3.146;2024-02-21T12:47:20;10.60;99.90
15922;DHT22;8060;50.948;3.146;2024-02-21T12:49:50;10.60;99.90
15922;DHT22;8060;50.948;3.146;2024-02-21T12:52:19;10.60;99.90
15922;DHT22;8060;50.948;3.146;2024-02-21T12:54:47;10.60;99.90
15922;DHT22;8060;50.948;3.146;2024-02-21T12:57:15;10.60;99.90
15922;DHT22;8060;50.948;3.146;2024-02-21T12:59:43;10.60;99.90
15922;DHT22;8060;50.948;3.146;2024-02-21T13:02:11;10.60;99.90
15922;DHT22;8060;50.948;3.146;2024-02-21T13:04:41;10.50;99.90
15922;DHT22;8060;50.948;3.146;2024-02-21T13:07:09;10.40;99.90
15922;DHT22;8060;50.948;3.146;2024-02-21T13:09:38;10.50;99.90
15922;DHT22;8060;50.948;3.146;2024-02-21T13:12:07;10.50;99.90
15922;DHT22;8060;50.948;3.146;2024-02-21T13:14:35;10.50;99.90
15922;DHT22;8060;50.948;3.146;2024-02-21T13:17:06;10.50;99.90
15922;DHT22;8060;50.948;3.146;2024-02-21T13:19:33;10.50;99.90
15922;DHT22;8060;50.948;3.146;2024-02-21T13:22:03;10.50;99.90
15922;DHT22;8060;50.948;3.146;2024-02-21T13:24:31;10.50;99.90
15922;DHT22;8060;50.948;3.146;2024-02-21T13:26:59;10.50;99.90
15922;DHT22;8060;50.948;3.146;2024-02-21T13:29:28;10.60;99.90
15922;DHT22;8060;50.948;3.146;2024-02-21T13:31:56;10.60;99.90
15922;DHT22;8060;50.948;3.146;2024-02-21T13:34:25;10.50;99.90
15922;DHT22;8060;50.948;3.146;2024-02-21T13:36:53;10.60;99.90
15922;DHT22;8060;50.948;3.146;2024-02-21T13:39:23;10.60;99.90
15922;DHT22;8060;50.948;3.146;2024-02-21T13:41:51;10.60;99.90
15922;DHT22;8060;50.948;3.146;2024-02-21T13:44:19;10.70;99.90
15922;DHT22;8060;50.948;3.146;2024-02-21T13:46:47;10.60;99.90
15922;DHT22;8060;50.948;3.146;2024-02-21T13:49:15;10.60;99.90
15922;DHT22;8060;50.948;3.146;2024-02-21T13:51:44;10.50;99.90
15922;DHT22;8060;50.948;3.146;2024-02-21T13:54:12;10.40;99.90
15922;DHT22;8060;50.948;3.146;2024-02-21T13:56:45;10.40;99.90
15922;DHT22;8060;50.948;3.146;2024-02-21T13:59:13;10.50;99.90
15922;DHT22;8060;50.948;3.146;2024-02-21T14:01:41;10.40;99.90
15922;DHT22;8060;50.948;3.146;2024-02-21T14:04:10;10.40;99.90
15922;DHT22;8060;50.948;3.146;2024-02-21T14:06:39;10.40;99.90
15922;DHT22;8060;50.948;3.146;2024-02-21T14:09:10;10.40;99.90
15922;DHT22;8060;50.948;3.146;2024-02-21T14:11:38;10.40;99.90
15922;DHT22;8060;50.948;3.146;2024-02-21T14:14:08;10.40;99.90
15922;DHT22;8060;50.948;3.146;2024-02-21T14:16:36;10.30;99.90
15922;DHT22;8060;50.948;3.146;2024-02-21T14:19:04;10.40;99.90
15922;DHT22;8060;50.948;3.146;2024-02-21T14:21:33;10.40;99.90
15922;DHT22;8060;50.948;3.146;2024-02-21T14:24:04;10.30;99.90
15922;DHT22;8060;50.948;3.146;2024-02-21T14:26:32;10.40;99.90
15922;DHT22;8060;50.948;3.146;2024-02-21T14:29:02;10.30;99.90
15922;DHT22;8060;50.948;3.146;2024-02-21T14:31:32;10.30;99.90
15922;DHT22;8060;50.948;3.146;2024-02-21T14:34:01;10.30;99.90
15922;DHT22;8060;50.948;3.146;2024-02-21T14:36:30;10.30;99.90
15922;DHT22;8060;50.948;3.146;2024-02-21T14:39:00;10.30;99.90
15922;DHT22;8060;50.948;3.146;2024-02-21T14:41:28;10.30;99.90
15922;DHT22;8060;50.948;3.146;2024-02-21T14:43:56;10.20;99.90
15922;DHT22;8060;50.948;3.146;2024-02-21T14:46:32;10.30;99.90
15922;DHT22;8060;50.948;3.146;2024-02-21T14:49:00;10.20;99.90
15922;DHT22;8060;50.948;3.146;2024-02-21T14:51:29;10.30;99.90
15922;DHT22;8060;50.948;3.146;2024-02-21T14:53:58;10.30;99.90
15922;DHT22;8060;50.948;3.146;2024-02-21T14:56:26;10.40;99.90
15922;DHT22;8060;50.948;3.146;2024-02-21T14:58:53;10.30;99.90
15922;DHT22;8060;50.948;3.146;2024-02-21T15:01:28;10.30;99.90
15922;DHT22;8060;50.948;3.146;2024-02-21T15:03:58;10.30;99.90
15922;DHT22;8060;50.948;3.146;2024-02-21T15:06:26;10.30;99.90
15922;DHT22;8060;50.948;3.146;2024-02-21T15:08:55;10.30;99.90
15922;DHT22;8060;50.948;3.146;2024-02-21T15:11:24;10.30;99.90
15922;DHT22;8060;50.948;3.146;2024-02-21T15:13:52;10.30;99.90
15922;DHT22;8060;50.948;3.146;2024-02-21T15:16:20;10.30;99.90
15922;DHT22;8060;50.948;3.146;2024-02-21T15:18:48;10.30;99.90
15922;DHT22;8060;50.948;3.146;2024-02-21T15:21:18;10.30;99.90
15922;DHT22;8060;50.948;3.146;2024-02-21T15:23:46;10.30;99.90
15922;DHT22;8060;50.948;3.146;2024-02-21T15:26:14;10.30;99.90
15922;DHT22;8060;50.948;3.146;2024-02-21T15:28:44;10.30;99.90
15922;DHT22;8060;50.948;3.146;2024-02-21T15:31:20;10.30;99.90
15922;DHT22;8060;50.948;3.146;2024-02-21T15:33:50;10.30;99.90
15922;DHT22;8060;50.948;3.146;2024-02-21T15:36:20;10.40;99.90
15922;DHT22;8060;50.948;3.146;2024-02-21T15:38:48;10.40;99.90
15922;DHT22;8060;50.948;3.146;2024-02-21T15:41:16;10.40;99.90
15922;DHT22;8060;50.948;3.146;2024-02-21T15:43:48;10.30;99.90
15922;DHT22;8060;50.948;3.146;2024-02-21T15:46:17;10.30;99.90
15922;DHT22;8060;50.948;3.146;2024-02-21T15:48:45;10.30;99.90
15922;DHT22;8060;50.948;3.146;2024-02-21T15:51:15;10.40;99.90
15922;DHT22;8060;50.948;3.146;2024-02-21T15:53:44;10.40;99.90
15922;DHT22;8060;50.948;3.146;2024-02-21T15:56:12;10.40;99.90
15922;DHT22;8060;50.948;3.146;2024-02-21T15:58:41;10.40;99.90
15922;DHT22;8060;50.948;3.146;2024-02-21T16:01:10;10.40;99.90
15922;DHT22;8060;50.948;3.146;2024-02-21T16:03:38;10.30;99.90
15922;DHT22;8060;50.948;3.146;2024-02-21T16:06:08;10.40;99.90